sensor_id;sensor_type;location;lat;lon;timestamp;P1;durP1;ratioP1;P2;durP2;ratioP2
62419;SDS011;48460;51.616;5.426;2023-05-21T00:01:13;6.88;;;4.00;;
62419;SDS011;48460;51.616;5.426;2023-05-21T00:03:40;6.90;;;4.32;;
62419;SDS011;48460;51.616;5.426;2023-05-21T00:06:10;6.55;;;4.20;;
62419;SDS011;48460;51.616;5.426;2023-05-21T00:08:37;6.32;;;4.03;;
62419;SDS011;48460;51.616;5.426;2023-05-21T00:11:04;7.20;;;4.10;;
62419;SDS011;48460;51.616;5.426;2023-05-21T00:13:37;7.93;;;4.30;;
62419;SDS011;48460;51.616;5.426;2023-05-21T00:16:04;9.95;;;4.47;;
62419;SDS011;48460;51.616;5.426;2023-05-21T00:18:29;11.13;;;4.35;;
62419;SDS011;48460;51.616;5.426;2023-05-21T00:20:56;6.07;;;4.28;;
62419;SDS011;48460;51.616;5.426;2023-05-21T00:23:21;7.50;;;4.45;;
62419;SDS011;48460;51.616;5.426;2023-05-21T00:25:47;8.52;;;4.60;;
62419;SDS011;48460;51.616;5.426;2023-05-21T00:28:14;5.75;;;4.13;;
62419;SDS011;48460;51.616;5.426;2023-05-21T00:30:42;7.13;;;4.30;;
62419;SDS011;48460;51.616;5.426;2023-05-21T00:33:07;7.13;;;4.38;;
62419;SDS011;48460;51.616;5.426;2023-05-21T00:35:34;5.85;;;4.45;;
62419;SDS011;48460;51.616;5.426;2023-05-21T00:38:06;7.50;;;4.50;;
62419;SDS011;48460;51.616;5.426;2023-05-21T00:40:33;6.70;;;4.53;;
62419;SDS011;48460;51.616;5.426;2023-05-21T00:42:59;7.60;;;4.50;;
62419;SDS011;48460;51.616;5.426;2023-05-21T00:45:24;10.45;;;4.70;;
62419;SDS011;48460;51.616;5.426;2023-05-21T00:47:50;9.38;;;4.78;;
62419;SDS011;48460;51.616;5.426;2023-05-21T00:50:19;10.27;;;4.80;;
62419;SDS011;48460;51.616;5.426;2023-05-21T00:52:47;7.55;;;4.65;;
62419;SDS011;48460;51.616;5.426;2023-05-21T00:55:12;9.40;;;4.57;;
62419;SDS011;48460;51.616;5.426;2023-05-21T00:57:39;8.02;;;4.55;;
62419;SDS011;48460;51.616;5.426;2023-05-21T01:00:06;6.22;;;4.05;;
62419;SDS011;48460;51.616;5.426;2023-05-21T01:02:33;7.47;;;4.53;;
62419;SDS011;48460;51.616;5.426;2023-05-21T01:05:01;8.02;;;4.28;;
62419;SDS011;48460;51.616;5.426;2023-05-21T01:07:30;6.65;;;4.55;;
62419;SDS011;48460;51.616;5.426;2023-05-21T01:10:01;7.03;;;4.63;;
62419;SDS011;48460;51.616;5.426;2023-05-21T01:12:30;7.13;;;4.57;;
62419;SDS011;48460;51.616;5.426;2023-05-21T01:14:58;9.27;;;4.47;;
62419;SDS011;48460;51.616;5.426;2023-05-21T01:17:26;8.68;;;4.60;;
62419;SDS011;48460;51.616;5.426;2023-05-21T01:19:54;9.70;;;4.93;;
62419;SDS011;48460;51.616;5.426;2023-05-21T01:22:21;9.35;;;4.70;;
62419;SDS011;48460;51.616;5.426;2023-05-21T01:24:49;8.20;;;4.85;;
62419;SDS011;48460;51.616;5.426;2023-05-21T01:27:15;8.95;;;4.88;;
62419;SDS011;48460;51.616;5.426;2023-05-21T01:29:41;6.07;;;4.45;;
62419;SDS011;48460;51.616;5.426;2023-05-21T01:38:11;7.68;;;4.93;;
62419;SDS011;48460;51.616;5.426;2023-05-21T01:43:28;9.13;;;4.85;;
62419;SDS011;48460;51.616;5.426;2023-05-21T01:45:56;8.00;;;4.60;;
62419;SDS011;48460;51.616;5.426;2023-05-21T01:48:27;12.18;;;4.68;;
62419;SDS011;48460;51.616;5.426;2023-05-21T01:50:57;7.28;;;4.55;;
62419;SDS011;48460;51.616;5.426;2023-05-21T01:53:25;7.53;;;4.68;;
62419;SDS011;48460;51.616;5.426;2023-05-21T01:55:51;8.35;;;4.63;;
62419;SDS011;48460;51.616;5.426;2023-05-21T01:58:18;5.95;;;4.32;;
62419;SDS011;48460;51.616;5.426;2023-05-21T02:00:45;7.13;;;4.53;;
62419;SDS011;48460;51.616;5.426;2023-05-21T02:03:12;9.15;;;4.65;;
62419;SDS011;48460;51.616;5.426;2023-05-21T02:05:40;8.27;;;4.63;;
62419;SDS011;48460;51.616;5.426;2023-05-21T02:08:05;7.10;;;4.68;;
62419;SDS011;48460;51.616;5.426;2023-05-21T02:10:34;6.90;;;4.47;;
62419;SDS011;48460;51.616;5.426;2023-05-21T02:13:00;6.53;;;4.50;;
62419;SDS011;48460;51.616;5.426;2023-05-21T02:15:25;7.07;;;4.68;;
62419;SDS011;48460;51.616;5.426;2023-05-21T02:17:52;9.10;;;4.90;;
62419;SDS011;48460;51.616;5.426;2023-05-21T02:20:17;7.43;;;4.65;;
62419;SDS011;48460;51.616;5.426;2023-05-21T02:22:44;7.82;;;4.97;;
62419;SDS011;48460;51.616;5.426;2023-05-21T02:25:13;5.60;;;4.47;;
62419;SDS011;48460;51.616;5.426;2023-05-21T02:27:40;8.95;;;4.70;;
62419;SDS011;48460;51.616;5.426;2023-05-21T02:30:07;7.32;;;4.57;;
62419;SDS011;48460;51.616;5.426;2023-05-21T02:32:35;9.55;;;5.00;;
62419;SDS011;48460;51.616;5.426;2023-05-21T02:35:01;8.35;;;4.80;;
62419;SDS011;48460;51.616;5.426;2023-05-21T02:37:28;8.35;;;5.07;;
62419;SDS011;48460;51.616;5.426;2023-05-21T02:39:58;10.85;;;4.90;;
62419;SDS011;48460;51.616;5.426;2023-05-21T02:42:24;11.65;;;5.15;;
62419;SDS011;48460;51.616;5.426;2023-05-21T02:44:50;9.35;;;4.72;;
62419;SDS011;48460;51.616;5.426;2023-05-21T02:47:16;8.35;;;4.85;;
62419;SDS011;48460;51.616;5.426;2023-05-21T02:49:49;11.15;;;5.07;;
62419;SDS011;48460;51.616;5.426;2023-05-21T02:52:16;6.53;;;4.88;;
62419;SDS011;48460;51.616;5.426;2023-05-21T02:54:42;8.65;;;5.10;;
62419;SDS011;48460;51.616;5.426;2023-05-21T02:57:09;8.73;;;4.97;;
62419;SDS011;48460;51.616;5.426;2023-05-21T02:59:35;10.40;;;5.00;;
62419;SDS011;48460;51.616;5.426;2023-05-21T03:02:00;7.22;;;5.15;;
62419;SDS011;48460;51.616;5.426;2023-05-21T03:04:26;7.72;;;5.13;;
62419;SDS011;48460;51.616;5.426;2023-05-21T03:06:52;7.30;;;4.88;;
62419;SDS011;48460;51.616;5.426;2023-05-21T03:09:22;7.88;;;5.30;;
62419;SDS011;48460;51.616;5.426;2023-05-21T03:11:48;11.85;;;5.28;;
62419;SDS011;48460;51.616;5.426;2023-05-21T03:14:14;10.00;;;5.40;;
62419;SDS011;48460;51.616;5.426;2023-05-21T03:16:40;8.73;;;5.43;;
62419;SDS011;48460;51.616;5.426;2023-05-21T03:19:09;6.93;;;5.00;;
62419;SDS011;48460;51.616;5.426;2023-05-21T03:21:35;9.70;;;5.22;;
62419;SDS011;48460;51.616;5.426;2023-05-21T03:24:01;7.20;;;5.13;;
62419;SDS011;48460;51.616;5.426;2023-05-21T03:26:28;10.25;;;5.32;;
62419;SDS011;48460;51.616;5.426;2023-05-21T03:28:54;7.95;;;5.43;;
62419;SDS011;48460;51.616;5.426;2023-05-21T03:31:20;9.02;;;5.40;;
62419;SDS011;48460;51.616;5.426;2023-05-21T03:33:46;9.27;;;5.32;;
62419;SDS011;48460;51.616;5.426;2023-05-21T03:36:12;10.00;;;5.30;;
62419;SDS011;48460;51.616;5.426;2023-05-21T03:38:37;7.07;;;5.03;;
62419;SDS011;48460;51.616;5.426;2023-05-21T03:41:03;9.10;;;5.40;;
62419;SDS011;48460;51.616;5.426;2023-05-21T03:43:28;10.68;;;5.45;;
62419;SDS011;48460;51.616;5.426;2023-05-21T03:45:54;12.02;;;5.35;;
62419;SDS011;48460;51.616;5.426;2023-05-21T03:48:19;10.60;;;5.50;;
62419;SDS011;48460;51.616;5.426;2023-05-21T03:50:46;7.75;;;5.13;;
62419;SDS011;48460;51.616;5.426;2023-05-21T03:53:11;8.02;;;5.40;;
62419;SDS011;48460;51.616;5.426;2023-05-21T03:55:38;10.63;;;5.55;;
62419;SDS011;48460;51.616;5.426;2023-05-21T03:58:04;12.80;;;5.65;;
62419;SDS011;48460;51.616;5.426;2023-05-21T04:00:31;8.00;;;5.45;;
62419;SDS011;48460;51.616;5.426;2023-05-21T04:02:58;8.68;;;5.38;;
62419;SDS011;48460;51.616;5.426;2023-05-21T04:05:24;10.65;;;5.30;;
62419;SDS011;48460;51.616;5.426;2023-05-21T04:07:49;9.18;;;5.47;;
62419;SDS011;48460;51.616;5.426;2023-05-21T04:10:15;8.38;;;5.57;;
62419;SDS011;48460;51.616;5.426;2023-05-21T04:12:40;13.43;;;5.60;;
62419;SDS011;48460;51.616;5.426;2023-05-21T04:15:07;7.25;;;5.32;;
62419;SDS011;48460;51.616;5.426;2023-05-21T04:17:33;13.15;;;5.93;;
62419;SDS011;48460;51.616;5.426;2023-05-21T04:19:59;10.27;;;5.60;;
62419;SDS011;48460;51.616;5.426;2023-05-21T04:22:25;9.52;;;5.68;;
62419;SDS011;48460;51.616;5.426;2023-05-21T04:24:51;8.93;;;6.03;;
62419;SDS011;48460;51.616;5.426;2023-05-21T04:27:19;14.55;;;5.78;;
62419;SDS011;48460;51.616;5.426;2023-05-21T04:29:48;10.80;;;6.13;;
62419;SDS011;48460;51.616;5.426;2023-05-21T04:32:15;11.95;;;5.93;;
62419;SDS011;48460;51.616;5.426;2023-05-21T04:34:42;10.95;;;6.05;;
62419;SDS011;48460;51.616;5.426;2023-05-21T04:37:08;9.93;;;5.97;;
62419;SDS011;48460;51.616;5.426;2023-05-21T04:39:36;11.20;;;6.03;;
62419;SDS011;48460;51.616;5.426;2023-05-21T04:42:02;8.10;;;5.88;;
62419;SDS011;48460;51.616;5.426;2023-05-21T04:44:28;10.30;;;5.85;;
62419;SDS011;48460;51.616;5.426;2023-05-21T04:46:54;9.43;;;6.03;;
62419;SDS011;48460;51.616;5.426;2023-05-21T04:49:21;10.45;;;6.72;;
62419;SDS011;48460;51.616;5.426;2023-05-21T04:51:46;10.80;;;6.53;;
62419;SDS011;48460;51.616;5.426;2023-05-21T04:54:19;8.93;;;6.25;;
62419;SDS011;48460;51.616;5.426;2023-05-21T04:56:44;11.07;;;6.30;;
62419;SDS011;48460;51.616;5.426;2023-05-21T04:59:11;10.80;;;6.25;;
62419;SDS011;48460;51.616;5.426;2023-05-21T05:01:37;8.73;;;5.90;;
62419;SDS011;48460;51.616;5.426;2023-05-21T05:04:03;10.32;;;6.57;;
62419;SDS011;48460;51.616;5.426;2023-05-21T05:06:29;10.65;;;6.45;;
62419;SDS011;48460;51.616;5.426;2023-05-21T05:08:55;9.88;;;6.32;;
62419;SDS011;48460;51.616;5.426;2023-05-21T05:11:20;10.95;;;6.57;;
62419;SDS011;48460;51.616;5.426;2023-05-21T05:13:46;9.57;;;6.50;;
62419;SDS011;48460;51.616;5.426;2023-05-21T05:16:11;9.65;;;6.65;;
62419;SDS011;48460;51.616;5.426;2023-05-21T05:18:38;8.75;;;6.32;;
62419;SDS011;48460;51.616;5.426;2023-05-21T05:21:06;11.05;;;6.80;;
62419;SDS011;48460;51.616;5.426;2023-05-21T05:23:31;11.40;;;6.18;;
62419;SDS011;48460;51.616;5.426;2023-05-21T05:25:57;10.55;;;6.53;;
62419;SDS011;48460;51.616;5.426;2023-05-21T05:28:22;18.38;;;6.60;;
62419;SDS011;48460;51.616;5.426;2023-05-21T05:30:48;13.38;;;6.90;;
62419;SDS011;48460;51.616;5.426;2023-05-21T05:33:13;11.27;;;7.05;;
62419;SDS011;48460;51.616;5.426;2023-05-21T05:35:39;10.88;;;6.93;;
62419;SDS011;48460;51.616;5.426;2023-05-21T05:38:04;9.73;;;6.35;;
62419;SDS011;48460;51.616;5.426;2023-05-21T05:40:30;11.43;;;6.93;;
62419;SDS011;48460;51.616;5.426;2023-05-21T05:42:55;11.38;;;6.82;;
62419;SDS011;48460;51.616;5.426;2023-05-21T05:45:21;13.60;;;6.82;;
62419;SDS011;48460;51.616;5.426;2023-05-21T05:47:46;11.27;;;6.70;;
62419;SDS011;48460;51.616;5.426;2023-05-21T05:50:11;10.55;;;6.40;;
62419;SDS011;48460;51.616;5.426;2023-05-21T05:52:38;12.98;;;7.22;;
62419;SDS011;48460;51.616;5.426;2023-05-21T05:55:03;9.88;;;6.88;;
62419;SDS011;48460;51.616;5.426;2023-05-21T05:57:29;9.80;;;7.18;;
62419;SDS011;48460;51.616;5.426;2023-05-21T05:59:55;10.38;;;7.07;;
62419;SDS011;48460;51.616;5.426;2023-05-21T06:02:20;9.82;;;7.50;;
62419;SDS011;48460;51.616;5.426;2023-05-21T06:04:47;10.18;;;6.60;;
62419;SDS011;48460;51.616;5.426;2023-05-21T06:07:12;11.40;;;7.35;;
62419;SDS011;48460;51.616;5.426;2023-05-21T06:09:38;10.90;;;6.63;;
62419;SDS011;48460;51.616;5.426;2023-05-21T06:12:09;10.38;;;6.80;;
62419;SDS011;48460;51.616;5.426;2023-05-21T06:14:35;10.90;;;7.18;;
62419;SDS011;48460;51.616;5.426;2023-05-21T06:17:03;11.25;;;6.80;;
62419;SDS011;48460;51.616;5.426;2023-05-21T06:19:29;10.98;;;7.10;;
62419;SDS011;48460;51.616;5.426;2023-05-21T06:21:55;10.48;;;7.63;;
62419;SDS011;48460;51.616;5.426;2023-05-21T06:24:20;12.85;;;7.53;;
62419;SDS011;48460;51.616;5.426;2023-05-21T06:26:48;11.15;;;7.35;;
62419;SDS011;48460;51.616;5.426;2023-05-21T06:29:15;8.75;;;6.70;;
62419;SDS011;48460;51.616;5.426;2023-05-21T06:31:41;11.38;;;6.65;;
62419;SDS011;48460;51.616;5.426;2023-05-21T06:34:07;15.32;;;6.85;;
62419;SDS011;48460;51.616;5.426;2023-05-21T06:36:35;8.82;;;6.07;;
62419;SDS011;48460;51.616;5.426;2023-05-21T06:39:01;12.23;;;6.72;;
62419;SDS011;48460;51.616;5.426;2023-05-21T06:41:27;10.02;;;7.10;;
62419;SDS011;48460;51.616;5.426;2023-05-21T06:43:53;9.35;;;6.40;;
62419;SDS011;48460;51.616;5.426;2023-05-21T06:46:21;9.73;;;6.72;;
62419;SDS011;48460;51.616;5.426;2023-05-21T06:48:48;9.07;;;6.45;;
62419;SDS011;48460;51.616;5.426;2023-05-21T06:51:13;13.05;;;6.85;;
62419;SDS011;48460;51.616;5.426;2023-05-21T06:53:39;12.10;;;7.03;;
62419;SDS011;48460;51.616;5.426;2023-05-21T06:56:04;11.98;;;6.70;;
62419;SDS011;48460;51.616;5.426;2023-05-21T06:58:30;9.65;;;6.30;;
62419;SDS011;48460;51.616;5.426;2023-05-21T07:00:57;14.10;;;6.90;;
62419;SDS011;48460;51.616;5.426;2023-05-21T07:03:25;12.18;;;6.95;;
62419;SDS011;48460;51.616;5.426;2023-05-21T07:05:51;11.88;;;6.45;;
62419;SDS011;48460;51.616;5.426;2023-05-21T07:08:17;9.40;;;6.93;;
62419;SDS011;48460;51.616;5.426;2023-05-21T07:10:45;9.07;;;6.47;;
62419;SDS011;48460;51.616;5.426;2023-05-21T07:13:10;9.10;;;6.80;;
62419;SDS011;48460;51.616;5.426;2023-05-21T07:15:36;9.50;;;6.85;;
62419;SDS011;48460;51.616;5.426;2023-05-21T07:18:02;12.80;;;6.97;;
62419;SDS011;48460;51.616;5.426;2023-05-21T07:20:28;10.18;;;6.57;;
62419;SDS011;48460;51.616;5.426;2023-05-21T07:22:53;12.73;;;7.03;;
62419;SDS011;48460;51.616;5.426;2023-05-21T07:25:19;11.35;;;6.97;;
62419;SDS011;48460;51.616;5.426;2023-05-21T07:27:45;11.20;;;7.40;;
62419;SDS011;48460;51.616;5.426;2023-05-21T07:30:10;11.27;;;7.20;;
62419;SDS011;48460;51.616;5.426;2023-05-21T07:32:36;11.80;;;6.68;;
62419;SDS011;48460;51.616;5.426;2023-05-21T07:35:01;10.95;;;6.70;;
62419;SDS011;48460;51.616;5.426;2023-05-21T07:37:27;10.32;;;7.25;;
62419;SDS011;48460;51.616;5.426;2023-05-21T07:39:56;11.85;;;7.28;;
62419;SDS011;48460;51.616;5.426;2023-05-21T07:42:22;10.48;;;7.32;;
62419;SDS011;48460;51.616;5.426;2023-05-21T07:44:48;9.75;;;7.00;;
62419;SDS011;48460;51.616;5.426;2023-05-21T07:47:14;12.13;;;7.55;;
62419;SDS011;48460;51.616;5.426;2023-05-21T07:49:40;10.65;;;7.22;;
62419;SDS011;48460;51.616;5.426;2023-05-21T07:52:06;12.27;;;7.55;;
62419;SDS011;48460;51.616;5.426;2023-05-21T07:54:31;11.85;;;6.80;;
62419;SDS011;48460;51.616;5.426;2023-05-21T07:56:59;10.98;;;7.45;;
62419;SDS011;48460;51.616;5.426;2023-05-21T07:59:26;10.55;;;7.28;;
62419;SDS011;48460;51.616;5.426;2023-05-21T08:01:52;12.75;;;7.65;;
62419;SDS011;48460;51.616;5.426;2023-05-21T08:04:18;13.75;;;7.72;;
62419;SDS011;48460;51.616;5.426;2023-05-21T08:06:46;11.65;;;7.90;;
62419;SDS011;48460;51.616;5.426;2023-05-21T08:09:12;11.52;;;7.68;;
62419;SDS011;48460;51.616;5.426;2023-05-21T08:11:38;11.32;;;7.53;;
62419;SDS011;48460;51.616;5.426;2023-05-21T08:14:03;11.13;;;7.18;;
62419;SDS011;48460;51.616;5.426;2023-05-21T08:16:31;11.15;;;7.65;;
62419;SDS011;48460;51.616;5.426;2023-05-21T08:18:56;10.43;;;7.18;;
62419;SDS011;48460;51.616;5.426;2023-05-21T08:21:22;13.43;;;7.90;;
62419;SDS011;48460;51.616;5.426;2023-05-21T08:23:47;14.75;;;8.00;;
62419;SDS011;48460;51.616;5.426;2023-05-21T08:26:12;11.82;;;8.13;;
62419;SDS011;48460;51.616;5.426;2023-05-21T08:28:40;12.07;;;7.60;;
62419;SDS011;48460;51.616;5.426;2023-05-21T08:31:06;11.88;;;7.38;;
62419;SDS011;48460;51.616;5.426;2023-05-21T08:33:35;14.82;;;7.45;;
62419;SDS011;48460;51.616;5.426;2023-05-21T08:36:03;12.98;;;7.22;;
62419;SDS011;48460;51.616;5.426;2023-05-21T08:38:32;12.57;;;7.30;;
62419;SDS011;48460;51.616;5.426;2023-05-21T08:40:58;11.18;;;7.70;;
62419;SDS011;48460;51.616;5.426;2023-05-21T08:43:27;9.73;;;7.47;;
62419;SDS011;48460;51.616;5.426;2023-05-21T08:45:56;11.05;;;7.80;;
62419;SDS011;48460;51.616;5.426;2023-05-21T08:48:26;11.32;;;7.45;;
62419;SDS011;48460;51.616;5.426;2023-05-21T08:50:52;10.93;;;7.68;;
62419;SDS011;48460;51.616;5.426;2023-05-21T08:53:18;12.50;;;7.68;;
62419;SDS011;48460;51.616;5.426;2023-05-21T08:55:45;12.00;;;7.25;;
62419;SDS011;48460;51.616;5.426;2023-05-21T08:58:10;16.30;;;8.43;;
62419;SDS011;48460;51.616;5.426;2023-05-21T09:00:37;12.68;;;7.10;;
62419;SDS011;48460;51.616;5.426;2023-05-21T09:03:03;10.65;;;7.55;;
62419;SDS011;48460;51.616;5.426;2023-05-21T09:05:32;13.68;;;7.80;;
62419;SDS011;48460;51.616;5.426;2023-05-21T09:08:01;12.32;;;7.32;;
62419;SDS011;48460;51.616;5.426;2023-05-21T09:10:48;12.80;;;7.68;;
62419;SDS011;48460;51.616;5.426;2023-05-21T09:13:15;10.98;;;7.78;;
62419;SDS011;48460;51.616;5.426;2023-05-21T09:15:43;12.60;;;7.93;;
62419;SDS011;48460;51.616;5.426;2023-05-21T09:18:12;13.55;;;7.65;;
62419;SDS011;48460;51.616;5.426;2023-05-21T09:20:37;11.32;;;7.80;;
62419;SDS011;48460;51.616;5.426;2023-05-21T09:23:04;11.95;;;7.50;;
62419;SDS011;48460;51.616;5.426;2023-05-21T09:25:37;10.93;;;8.13;;
62419;SDS011;48460;51.616;5.426;2023-05-21T09:28:03;11.30;;;8.07;;
62419;SDS011;48460;51.616;5.426;2023-05-21T09:30:35;11.30;;;7.63;;
62419;SDS011;48460;51.616;5.426;2023-05-21T09:33:00;13.60;;;8.25;;
62419;SDS011;48460;51.616;5.426;2023-05-21T09:35:27;14.07;;;7.90;;
62419;SDS011;48460;51.616;5.426;2023-05-21T09:37:52;11.15;;;8.10;;
62419;SDS011;48460;51.616;5.426;2023-05-21T09:40:19;12.32;;;8.55;;
62419;SDS011;48460;51.616;5.426;2023-05-21T09:42:49;14.60;;;8.68;;
62419;SDS011;48460;51.616;5.426;2023-05-21T09:45:20;15.90;;;8.40;;
62419;SDS011;48460;51.616;5.426;2023-05-21T09:47:48;15.65;;;8.73;;
62419;SDS011;48460;51.616;5.426;2023-05-21T09:50:18;13.43;;;8.15;;
62419;SDS011;48460;51.616;5.426;2023-05-21T09:52:45;15.27;;;7.60;;
62419;SDS011;48460;51.616;5.426;2023-05-21T09:55:11;12.35;;;8.18;;
62419;SDS011;48460;51.616;5.426;2023-05-21T09:57:44;12.32;;;8.35;;
62419;SDS011;48460;51.616;5.426;2023-05-21T10:00:20;18.42;;;9.13;;
62419;SDS011;48460;51.616;5.426;2023-05-21T10:02:47;14.48;;;8.30;;
62419;SDS011;48460;51.616;5.426;2023-05-21T10:05:15;13.77;;;8.40;;
62419;SDS011;48460;51.616;5.426;2023-05-21T10:07:44;15.18;;;8.68;;
62419;SDS011;48460;51.616;5.426;2023-05-21T10:10:20;13.75;;;8.90;;
62419;SDS011;48460;51.616;5.426;2023-05-21T10:13:07;12.20;;;8.73;;
62419;SDS011;48460;51.616;5.426;2023-05-21T10:15:37;15.55;;;8.48;;
62419;SDS011;48460;51.616;5.426;2023-05-21T10:18:04;14.02;;;8.90;;
62419;SDS011;48460;51.616;5.426;2023-05-21T10:20:32;13.02;;;8.63;;
62419;SDS011;48460;51.616;5.426;2023-05-21T10:23:00;20.50;;;9.20;;
62419;SDS011;48460;51.616;5.426;2023-05-21T10:25:27;17.58;;;9.68;;
62419;SDS011;48460;51.616;5.426;2023-05-21T10:27:59;15.57;;;9.02;;
62419;SDS011;48460;51.616;5.426;2023-05-21T10:30:25;11.68;;;8.70;;
62419;SDS011;48460;51.616;5.426;2023-05-21T10:32:51;13.75;;;9.45;;
62419;SDS011;48460;51.616;5.426;2023-05-21T10:35:19;14.90;;;8.98;;
62419;SDS011;48460;51.616;5.426;2023-05-21T10:37:45;18.40;;;9.27;;
62419;SDS011;48460;51.616;5.426;2023-05-21T10:40:12;15.93;;;9.05;;
62419;SDS011;48460;51.616;5.426;2023-05-21T10:51:17;20.77;;;9.75;;
62419;SDS011;48460;51.616;5.426;2023-05-21T10:59:35;24.90;;;10.48;;
62419;SDS011;48460;51.616;5.426;2023-05-21T11:02:06;15.30;;;9.80;;
62419;SDS011;48460;51.616;5.426;2023-05-21T11:04:33;14.82;;;10.00;;
62419;SDS011;48460;51.616;5.426;2023-05-21T11:07:03;13.70;;;10.77;;
62419;SDS011;48460;51.616;5.426;2023-05-21T11:09:29;17.88;;;9.85;;
62419;SDS011;48460;51.616;5.426;2023-05-21T11:11:58;13.25;;;10.30;;
62419;SDS011;48460;51.616;5.426;2023-05-21T11:14:25;17.83;;;10.47;;
62419;SDS011;48460;51.616;5.426;2023-05-21T11:17:35;13.90;;;10.02;;
62419;SDS011;48460;51.616;5.426;2023-05-21T11:20:03;16.13;;;11.10;;
62419;SDS011;48460;51.616;5.426;2023-05-21T11:22:33;15.15;;;10.60;;
62419;SDS011;48460;51.616;5.426;2023-05-21T11:25:00;17.02;;;10.55;;
62419;SDS011;48460;51.616;5.426;2023-05-21T11:27:30;15.68;;;10.73;;
62419;SDS011;48460;51.616;5.426;2023-05-21T11:29:57;14.75;;;10.20;;
62419;SDS011;48460;51.616;5.426;2023-05-21T11:32:24;14.45;;;10.75;;
62419;SDS011;48460;51.616;5.426;2023-05-21T11:34:50;14.48;;;11.30;;
62419;SDS011;48460;51.616;5.426;2023-05-21T11:40:19;18.73;;;11.50;;
62419;SDS011;48460;51.616;5.426;2023-05-21T11:45:16;18.35;;;11.48;;
62419;SDS011;48460;51.616;5.426;2023-05-21T11:47:49;17.83;;;12.57;;
62419;SDS011;48460;51.616;5.426;2023-05-21T11:50:16;15.85;;;11.70;;
62419;SDS011;48460;51.616;5.426;2023-05-21T11:52:48;17.40;;;11.73;;
62419;SDS011;48460;51.616;5.426;2023-05-21T11:55:15;17.58;;;11.70;;
62419;SDS011;48460;51.616;5.426;2023-05-21T11:57:46;18.23;;;13.00;;
62419;SDS011;48460;51.616;5.426;2023-05-21T12:00:14;18.10;;;12.77;;
62419;SDS011;48460;51.616;5.426;2023-05-21T12:02:44;15.40;;;11.98;;
62419;SDS011;48460;51.616;5.426;2023-05-21T12:05:15;15.63;;;11.90;;
62419;SDS011;48460;51.616;5.426;2023-05-21T12:07:40;16.27;;;11.23;;
62419;SDS011;48460;51.616;5.426;2023-05-21T12:10:06;17.27;;;12.25;;
62419;SDS011;48460;51.616;5.426;2023-05-21T12:12:32;14.90;;;11.85;;
62419;SDS011;48460;51.616;5.426;2023-05-21T12:14:58;19.88;;;12.65;;
62419;SDS011;48460;51.616;5.426;2023-05-21T12:17:26;19.67;;;12.27;;
62419;SDS011;48460;51.616;5.426;2023-05-21T12:19:55;18.70;;;13.35;;
62419;SDS011;48460;51.616;5.426;2023-05-21T12:22:24;19.02;;;13.63;;
62419;SDS011;48460;51.616;5.426;2023-05-21T12:24:51;18.98;;;13.48;;
62419;SDS011;48460;51.616;5.426;2023-05-21T12:27:22;16.83;;;13.43;;
62419;SDS011;48460;51.616;5.426;2023-05-21T12:29:48;24.10;;;12.68;;
62419;SDS011;48460;51.616;5.426;2023-05-21T12:32:16;20.80;;;13.80;;
62419;SDS011;48460;51.616;5.426;2023-05-21T12:34:42;15.60;;;12.88;;
62419;SDS011;48460;51.616;5.426;2023-05-21T12:37:19;19.67;;;12.75;;
62419;SDS011;48460;51.616;5.426;2023-05-21T12:39:47;20.65;;;12.55;;
62419;SDS011;48460;51.616;5.426;2023-05-21T12:42:15;20.67;;;13.88;;
62419;SDS011;48460;51.616;5.426;2023-05-21T12:44:48;15.98;;;12.25;;
62419;SDS011;48460;51.616;5.426;2023-05-21T12:47:16;18.40;;;12.32;;
62419;SDS011;48460;51.616;5.426;2023-05-21T12:49:42;18.63;;;12.32;;
62419;SDS011;48460;51.616;5.426;2023-05-21T12:52:10;19.50;;;12.93;;
62419;SDS011;48460;51.616;5.426;2023-05-21T12:54:37;16.23;;;12.77;;
62419;SDS011;48460;51.616;5.426;2023-05-21T12:57:07;19.05;;;13.25;;
62419;SDS011;48460;51.616;5.426;2023-05-21T13:02:21;15.98;;;12.18;;
62419;SDS011;48460;51.616;5.426;2023-05-21T13:04:54;16.20;;;12.00;;
62419;SDS011;48460;51.616;5.426;2023-05-21T13:07:24;18.90;;;12.30;;
62419;SDS011;48460;51.616;5.426;2023-05-21T13:09:51;15.65;;;12.50;;
62419;SDS011;48460;51.616;5.426;2023-05-21T13:12:21;20.65;;;13.38;;
62419;SDS011;48460;51.616;5.426;2023-05-21T13:14:48;31.63;;;15.25;;
62419;SDS011;48460;51.616;5.426;2023-05-21T13:17:15;18.85;;;12.40;;
62419;SDS011;48460;51.616;5.426;2023-05-21T13:19:40;17.88;;;12.55;;
62419;SDS011;48460;51.616;5.426;2023-05-21T13:22:06;19.30;;;12.38;;
62419;SDS011;48460;51.616;5.426;2023-05-21T13:24:35;20.58;;;11.45;;
62419;SDS011;48460;51.616;5.426;2023-05-21T13:27:03;15.13;;;11.63;;
62419;SDS011;48460;51.616;5.426;2023-05-21T13:29:29;21.20;;;11.40;;
62419;SDS011;48460;51.616;5.426;2023-05-21T13:31:55;15.32;;;10.50;;
62419;SDS011;48460;51.616;5.426;2023-05-21T13:34:20;15.85;;;11.50;;
62419;SDS011;48460;51.616;5.426;2023-05-21T13:36:46;16.92;;;11.32;;
62419;SDS011;48460;51.616;5.426;2023-05-21T13:39:11;17.33;;;11.40;;
62419;SDS011;48460;51.616;5.426;2023-05-21T13:41:37;18.38;;;12.13;;
62419;SDS011;48460;51.616;5.426;2023-05-21T13:44:02;16.23;;;11.30;;
62419;SDS011;48460;51.616;5.426;2023-05-21T13:46:28;16.40;;;11.40;;
62419;SDS011;48460;51.616;5.426;2023-05-21T13:48:54;14.15;;;11.32;;
62419;SDS011;48460;51.616;5.426;2023-05-21T13:51:20;18.90;;;11.85;;
62419;SDS011;48460;51.616;5.426;2023-05-21T13:53:46;17.23;;;11.13;;
62419;SDS011;48460;51.616;5.426;2023-05-21T13:56:11;15.43;;;11.50;;
62419;SDS011;48460;51.616;5.426;2023-05-21T13:58:37;15.25;;;11.20;;
62419;SDS011;48460;51.616;5.426;2023-05-21T14:01:04;15.82;;;10.73;;
62419;SDS011;48460;51.616;5.426;2023-05-21T14:03:30;21.08;;;11.25;;
62419;SDS011;48460;51.616;5.426;2023-05-21T14:05:56;15.50;;;11.00;;
62419;SDS011;48460;51.616;5.426;2023-05-21T14:08:24;14.18;;;10.43;;
62419;SDS011;48460;51.616;5.426;2023-05-21T14:10:51;14.32;;;11.02;;
62419;SDS011;48460;51.616;5.426;2023-05-21T14:13:17;15.38;;;11.10;;
62419;SDS011;48460;51.616;5.426;2023-05-21T14:15:42;14.02;;;10.30;;
62419;SDS011;48460;51.616;5.426;2023-05-21T14:18:10;15.00;;;9.95;;
62419;SDS011;48460;51.616;5.426;2023-05-21T14:20:39;15.88;;;10.38;;
62419;SDS011;48460;51.616;5.426;2023-05-21T14:23:04;15.88;;;10.48;;
62419;SDS011;48460;51.616;5.426;2023-05-21T14:25:30;17.23;;;11.15;;
62419;SDS011;48460;51.616;5.426;2023-05-21T14:27:55;14.75;;;10.55;;
62419;SDS011;48460;51.616;5.426;2023-05-21T14:30:21;13.93;;;10.27;;
62419;SDS011;48460;51.616;5.426;2023-05-21T14:32:46;13.98;;;10.15;;
62419;SDS011;48460;51.616;5.426;2023-05-21T14:35:12;12.93;;;10.30;;
62419;SDS011;48460;51.616;5.426;2023-05-21T14:37:37;18.27;;;11.15;;
62419;SDS011;48460;51.616;5.426;2023-05-21T14:40:03;16.13;;;10.50;;
62419;SDS011;48460;51.616;5.426;2023-05-21T14:42:35;12.85;;;9.95;;
62419;SDS011;48460;51.616;5.426;2023-05-21T14:45:00;13.48;;;10.15;;
62419;SDS011;48460;51.616;5.426;2023-05-21T14:47:26;16.55;;;10.48;;
62419;SDS011;48460;51.616;5.426;2023-05-21T14:49:51;18.17;;;9.45;;
62419;SDS011;48460;51.616;5.426;2023-05-21T14:52:17;15.60;;;10.77;;
62419;SDS011;48460;51.616;5.426;2023-05-21T14:54:42;13.15;;;10.32;;
62419;SDS011;48460;51.616;5.426;2023-05-21T14:57:08;18.08;;;11.40;;
62419;SDS011;48460;51.616;5.426;2023-05-21T14:59:33;16.92;;;11.63;;
62419;SDS011;48460;51.616;5.426;2023-05-21T15:01:59;16.85;;;10.52;;
62419;SDS011;48460;51.616;5.426;2023-05-21T15:04:24;14.70;;;10.85;;
62419;SDS011;48460;51.616;5.426;2023-05-21T15:06:50;15.05;;;10.93;;